Time;durP1;ratioP1;P1;durP2;ratioP2;P2;SDS_P1;SDS_P2;PMS_P1;PMS_P2;Temp;Humidity;BMP_temperature;BMP_pressure;BME280_temperature;BME280_humidity;BME280_pressure;Samples;Min_cycle;Max_cycle;Signal;HPM_P1;HPM_P2
2023/04/06 00:06:50;;;;;;;6.32;3.40;;;2.20;99.90;;;;;;6262910;22;20025;-84
2023/04/06 00:09:16;;;;;;;7.03;3.63;;;2.20;99.90;;;;;;6220027;22;20016;-89
2023/04/06 00:11:42;;;;;;;7.63;4.10;;;2.20;99.90;;;;;;6194761;22;20460;-87
2023/04/06 00:14:07;;;;;;;7.35;3.75;;;2.20;99.90;;;;;;6245080;22;20038;-85
2023/04/06 00:16:33;;;;;;;7.63;3.72;;;2.20;99.90;;;;;;6170503;22;20019;-88
2023/04/06 00:18:59;;;;;;;8.17;3.93;;;2.20;99.90;;;;;;6328311;22;20471;-89
2023/04/06 00:21:44;;;;;;;7.20;3.63;;;2.20;99.90;;;;;;6246484;22;20019;-86
2023/04/06 00:24:34;;;;;;;6.53;3.35;;;2.20;99.90;;;;;;6221114;22;20020;-84
2023/04/06 00:27:12;;;;;;;8.20;4.05;;;2.30;99.90;;;;;;6220555;22;20032;-86
2023/04/06 00:29:40;;;;;;;7.82;3.83;;;2.30;99.90;;;;;;6245066;22;20336;-85
2023/04/06 00:32:05;;;;;;;8.65;4.47;;;2.30;99.90;;;;;;6245063;22;20103;-84
2023/04/06 00:34:31;;;;;;;6.90;3.80;;;2.30;99.90;;;;;;6272278;22;20051;-85
2023/04/06 00:36:57;;;;;;;8.20;4.27;;;2.30;99.90;;;;;;6272907;22;20019;-83
2023/04/06 00:39:23;;;;;;;7.63;4.40;;;2.30;99.90;;;;;;6246733;22;20016;-84
2023/04/06 00:41:53;;;;;;;8.20;4.07;;;2.30;99.90;;;;;;6248514;22;20027;-84
2023/04/06 00:44:19;;;;;;;7.53;3.88;;;2.20;99.90;;;;;;6245522;22;20435;-84
2023/04/06 00:46:45;;;;;;;7.65;3.80;;;2.20;99.90;;;;;;6245121;22;20022;-86
2023/04/06 00:49:11;;;;;;;8.40;4.50;;;2.00;99.90;;;;;;6244838;22;20086;-86
2023/04/06 00:51:37;;;;;;;7.03;3.70;;;2.00;99.90;;;;;;6271960;22;20012;-85
2023/04/06 00:54:03;;;;;;;7.63;4.15;;;1.90;99.90;;;;;;6244925;22;20026;-84
2023/04/06 00:56:28;;;;;;;9.10;4.90;;;1.90;99.90;;;;;;6245010;22;20054;-85
2023/04/06 00:58:54;;;;;;;7.75;3.88;;;1.80;99.90;;;;;;6219939;22;20012;-84
2023/04/06 01:01:20;;;;;;;8.70;4.10;;;1.80;99.90;;;;;;6219625;22;20340;-86
2023/04/06 01:03:48;;;;;;;9.00;4.40;;;1.70;99.90;;;;;;6272127;22;20033;-87
2023/04/06 01:06:14;;;;;;;8.65;4.07;;;1.70;99.90;;;;;;6244940;22;20471;-86
2023/04/06 01:08:52;;;;;;;9.38;4.68;;;1.60;99.90;;;;;;6244768;22;20034;-85
2023/04/06 01:11:18;;;;;;;9.80;4.70;;;1.70;99.90;;;;;;6219422;22;20061;-84
2023/04/06 01:13:44;;;;;;;9.30;4.45;;;1.70;99.90;;;;;;6271852;22;20464;-85
2023/04/06 01:16:10;;;;;;;8.98;4.60;;;1.60;99.90;;;;;;6219781;22;20152;-84
2023/04/06 01:18:37;;;;;;;8.40;4.35;;;1.70;99.90;;;;;;6219573;22;20022;-85
2023/04/06 01:21:02;;;;;;;;;;;1.70;99.90;;;;;;6272630;22;20016;-85
2023/04/06 01:23:35;;;;;;;10.23;5.07;;;1.60;99.90;;;;;;6271979;22;19922;-85
2023/04/06 01:26:13;;;;;;;10.02;4.82;;;1.70;99.90;;;;;;6219788;22;20080;-85
2023/04/06 01:28:40;;;;;;;9.10;5.38;;;1.70;99.90;;;;;;6244434;22;20043;-86
2023/04/06 01:31:07;;;;;;;;;;;1.60;99.90;;;;;;6220455;22;20020;-85
2023/04/06 01:33:32;;;;;;;9.63;4.90;;;1.70;99.90;;;;;;6244694;22;19915;-85
2023/04/06 01:35:59;;;;;;;9.02;4.55;;;1.60;99.90;;;;;;6245182;22;20135;-85
2023/04/06 01:38:30;;;;;;;9.88;4.85;;;1.60;99.90;;;;;;6244886;22;20020;-85
2023/04/06 01:40:56;;;;;;;8.38;4.95;;;1.60;99.90;;;;;;6244552;22;20068;-85
2023/04/06 01:43:22;;;;;;;8.85;4.88;;;1.60;99.90;;;;;;6244708;22;20012;-84
2023/04/06 01:45:48;;;;;;;10.63;5.45;;;1.50;99.90;;;;;;6244843;22;20020;-85
2023/04/06 01:48:14;;;;;;;12.30;6.03;;;1.50;99.90;;;;;;6244682;22;20020;-84
2023/04/06 01:50:39;;;;;;;9.38;5.50;;;1.50;99.90;;;;;;6244490;22;20020;-86
2023/04/06 01:53:05;;;;;;;9.27;5.13;;;1.50;99.90;;;;;;6244905;22;20065;-86
2023/04/06 01:55:34;;;;;;;9.65;4.78;;;1.40;99.90;;;;;;6272649;22;20019;-86
2023/04/06 01:58:00;;;;;;;10.13;5.10;;;1.40;99.90;;;;;;6244765;22;20016;-87
2023/04/06 02:00:25;;;;;;;9.88;4.85;;;1.40;99.90;;;;;;6219348;22;20351;-86
2023/04/06 02:02:51;;;;;;;9.27;5.00;;;1.40;99.90;;;;;;6194477;22;20098;-87
2023/04/06 02:05:17;;;;;;;10.27;5.35;;;1.40;99.90;;;;;;6245000;22;20080;-86
2023/04/06 02:07:42;;;;;;;8.23;4.65;;;1.40;99.90;;;;;;6244401;22;20062;-87
2023/04/06 02:10:15;;;;;;;9.10;5.10;;;1.40;99.90;;;;;;6244711;22;20020;-86
2023/04/06 02:12:40;;;;;;;9.90;5.30;;;1.40;99.90;;;;;;6244437;22;20020;-86
2023/04/06 02:15:07;;;;;;;8.52;4.82;;;1.30;99.90;;;;;;6244507;22;20027;-88
2023/04/06 02:17:32;;;;;;;9.05;4.63;;;1.30;99.90;;;;;;6271780;22;20019;-86
2023/04/06 02:19:58;;;;;;;9.63;5.00;;;1.20;99.90;;;;;;6271456;22;20345;-86
2023/04/06 02:22:24;;;;;;;8.85;4.65;;;1.20;99.90;;;;;;6219468;22;20516;-86
2023/04/06 02:24:50;;;;;;;9.05;5.32;;;1.10;99.90;;;;;;6271699;22;20107;-85
2023/04/06 02:27:15;;;;;;;9.23;4.82;;;1.10;99.90;;;;;;6244486;22;20086;-86
2023/04/06 02:29:41;;;;;;;9.23;5.53;;;1.10;99.90;;;;;;6244536;22;20429;-85
2023/04/06 02:32:07;;;;;;;10.05;5.15;;;1.10;99.90;;;;;;6271515;22;20020;-85
2023/04/06 02:34:33;;;;;;;9.13;5.72;;;1.10;99.90;;;;;;6271553;22;20356;-85
2023/04/06 02:36:58;;;;;;;10.93;5.78;;;1.10;99.90;;;;;;6271556;22;20138;-85
2023/04/06 02:39:24;;;;;;;10.50;5.22;;;1.10;99.90;;;;;;6219317;22;20012;-86
2023/04/06 02:41:50;;;;;;;9.68;5.20;;;1.10;99.90;;;;;;6271567;22;20069;-86
2023/04/06 02:44:15;;;;;;;10.23;5.22;;;1.10;99.90;;;;;;6271732;22;20389;-85
2023/04/06 02:46:41;;;;;;;9.30;4.90;;;1.10;99.90;;;;;;6244625;22;20453;-86
2023/04/06 02:49:07;;;;;;;10.90;5.53;;;1.10;99.90;;;;;;6272454;22;20016;-84
2023/04/06 02:51:33;;;;;;;10.00;5.68;;;1.10;99.90;;;;;;6275065;22;20091;-85
2023/04/06 02:53:59;;;;;;;11.63;6.05;;;1.10;99.90;;;;;;6275953;22;20020;-86
2023/04/06 02:56:26;;;;;;;10.45;5.85;;;1.10;99.90;;;;;;6272367;22;20020;-85
2023/04/06 02:58:51;;;;;;;;;;;1.10;99.90;;;;;;6272218;22;20019;-84
2023/04/06 03:01:17;;;;;;;10.82;5.72;;;1.10;99.90;;;;;;6271621;22;20039;-86
2023/04/06 03:03:43;;;;;;;10.95;5.47;;;1.00;99.90;;;;;;6219295;22;20444;-86
2023/04/06 03:06:08;;;;;;;9.80;5.32;;;1.00;99.90;;;;;;6244206;22;20099;-84
2023/04/06 03:08:34;;;;;;;9.48;5.43;;;1.00;99.90;;;;;;6271173;22;20090;-85
2023/04/06 03:11:00;;;;;;;12.30;5.67;;;1.00;99.90;;;;;;6244492;22;20099;-84
2023/04/06 03:13:26;;;;;;;11.65;5.63;;;0.90;99.90;;;;;;6271594;22;20051;-84
2023/04/06 03:15:52;;;;;;;10.48;5.85;;;0.90;99.90;;;;;;6244518;22;20012;-83
2023/04/06 03:18:22;;;;;;;12.23;5.45;;;0.90;99.90;;;;;;6244411;22;20084;-83
2023/04/06 03:20:48;;;;;;;11.35;6.28;;;0.90;99.90;;;;;;6271390;22;20015;-83
2023/04/06 03:23:14;;;;;;;13.07;6.30;;;0.80;99.90;;;;;;6271575;22;20039;-86
2023/04/06 03:25:40;;;;;;;10.55;5.85;;;0.80;99.90;;;;;;6244277;22;20290;-84
2023/04/06 03:28:05;;;;;;;12.05;6.28;;;0.80;99.90;;;;;;6219151;22;20045;-83
2023/04/06 03:30:31;;;;;;;10.60;5.85;;;0.80;99.90;;;;;;6271473;22;20016;-83
2023/04/06 03:32:57;;;;;;;11.35;6.05;;;0.80;99.90;;;;;;6271063;22;20020;-83
2023/04/06 03:35:23;;;;;;;10.15;5.78;;;0.90;99.90;;;;;;6244730;22;20440;-82
2023/04/06 03:37:55;;;;;;;9.68;5.82;;;0.90;99.90;;;;;;6271214;22;20011;-83
2023/04/06 03:40:22;;;;;;;11.73;5.95;;;0.90;99.90;;;;;;6218742;22;20020;-82
2023/04/06 03:42:48;;;;;;;11.65;6.43;;;0.90;99.90;;;;;;6244250;22;20459;-82
2023/04/06 03:45:13;;;;;;;12.07;6.32;;;0.90;99.90;;;;;;6218710;22;20028;-83
2023/04/06 03:47:40;;;;;;;11.13;5.93;;;0.90;99.90;;;;;;6218878;22;20022;-83
2023/04/06 03:50:06;;;;;;;10.50;5.80;;;0.90;99.90;;;;;;6271117;22;20349;-83
2023/04/06 03:52:31;;;;;;;10.67;6.00;;;0.90;99.90;;;;;;6243414;22;20503;-83
2023/04/06 03:55:00;;;;;;;11.48;5.95;;;0.90;99.90;;;;;;6244221;22;20331;-83
2023/04/06 04:13:53;;;;;;;11.02;6.07;;;0.80;99.90;;;;;;6259741;22;20020;-93
2023/04/06 04:16:19;;;;;;;11.57;6.55;;;0.80;99.90;;;;;;6195499;22;20023;-92
2023/04/06 04:18:47;;;;;;;9.85;5.88;;;0.80;99.90;;;;;;6195401;22;20043;-90
2023/04/06 04:21:12;;;;;;;11.27;6.13;;;0.80;99.90;;;;;;6220370;22;20026;-90
2023/04/06 04:23:38;;;;;;;10.68;5.82;;;0.70;99.90;;;;;;6195479;22;20016;-90
2023/04/06 04:26:04;;;;;;;9.57;5.88;;;0.60;99.90;;;;;;6195155;22;20027;-89
2023/04/06 04:28:55;;;;;;;13.50;6.32;;;0.70;99.90;;;;;;6195531;22;20022;-89
2023/04/06 04:31:33;;;;;;;10.93;6.60;;;0.60;99.90;;;;;;6220490;22;20016;-88
2023/04/06 04:34:01;;;;;;;10.20;5.55;;;0.60;99.90;;;;;;6218249;22;20023;-88
2023/04/06 04:36:27;;;;;;;10.32;5.40;;;0.60;99.90;;;;;;6219660;22;20039;-87
2023/04/06 04:38:52;;;;;;;10.95;6.22;;;0.50;99.90;;;;;;6245221;22;20321;-85
2023/04/06 04:41:18;;;;;;;10.57;6.28;;;0.50;99.90;;;;;;6244759;22;20022;-85
2023/04/06 04:43:44;;;;;;;11.48;6.40;;;0.50;99.90;;;;;;6219572;22;20052;-84
2023/04/06 04:46:10;;;;;;;11.60;6.07;;;0.50;99.90;;;;;;6244908;22;20020;-87
2023/04/06 04:48:36;;;;;;;9.15;5.47;;;0.50;99.90;;;;;;6361383;22;20021;-85
2023/04/06 04:51:02;;;;;;;12.57;6.22;;;0.50;99.90;;;;;;6321447;22;20338;-85
2023/04/06 04:53:46;;;;;;;11.35;6.30;;;0.50;99.90;;;;;;6347447;22;20446;-85
2023/04/06 04:56:12;;;;;;;11.85;6.28;;;0.50;99.90;;;;;;6373203;22;20033;-85
2023/04/06 04:58:37;;;;;;;9.93;5.88;;;0.40;99.90;;;;;;6321369;22;20499;-84
2023/04/06 05:01:03;;;;;;;14.63;6.53;;;0.40;99.90;;;;;;6319501;22;20014;-85
2023/04/06 05:03:54;;;;;;;11.35;6.25;;;0.40;99.90;;;;;;6348753;22;20388;-84
2023/04/06 05:06:32;;;;;;;13.45;6.70;;;0.40;99.90;;;;;;6375757;22;20010;-85
2023/04/06 05:08:57;;;;;;;10.25;6.15;;;0.40;99.90;;;;;;6323164;22;20032;-84
2023/04/06 05:11:23;;;;;;;11.70;6.32;;;0.40;99.90;;;;;;6349035;22;20018;-86
2023/04/06 05:13:49;;;;;;;13.35;6.72;;;0.30;99.90;;;;;;6297349;22;20021;-85
2023/04/06 05:16:14;;;;;;;11.57;7.18;;;0.30;99.90;;;;;;6297060;22;20190;-82
2023/04/06 05:18:47;;;;;;;11.98;6.30;;;0.30;99.90;;;;;;6375485;22;20442;-88
2023/04/06 05:21:12;;;;;;;12.27;6.57;;;0.30;99.90;;;;;;6375444;22;20040;-85
2023/04/06 05:23:47;;;;;;;11.70;6.35;;;0.20;99.90;;;;;;6407937;22;20470;-93
2023/04/06 05:26:13;;;;;;;11.63;6.43;;;0.30;99.90;;;;;;6361674;22;20005;-94
2023/04/06 05:28:38;;;;;;;11.07;6.10;;;0.30;99.90;;;;;;6358957;22;20018;-91
2023/04/06 05:31:04;;;;;;;12.38;6.78;;;0.30;99.90;;;;;;6356155;22;20013;-84
2023/04/06 05:33:30;;;;;;;11.13;6.55;;;0.30;99.90;;;;;;6401947;22;20021;-79
2023/04/06 05:35:56;;;;;;;12.05;6.65;;;0.40;99.90;;;;;;6403126;22;20018;-80
2023/04/06 05:38:21;;;;;;;11.20;5.88;;;0.40;99.90;;;;;;6403285;22;20442;-81
2023/04/06 05:40:47;;;;;;;9.20;5.85;;;0.40;99.90;;;;;;6403354;22;20013;-81
2023/04/06 05:43:13;;;;;;;13.25;6.07;;;0.50;99.90;;;;;;6375189;22;20395;-78
2023/04/06 05:45:38;;;;;;;9.63;5.88;;;0.60;99.90;;;;;;6403344;22;20029;-78
2023/04/06 05:48:04;;;;;;;12.02;6.13;;;0.70;99.90;;;;;;6401121;22;20025;-79
2023/04/06 05:50:30;;;;;;;10.13;5.55;;;0.70;99.90;;;;;;6400588;22;20455;-83
2023/04/06 05:52:55;;;;;;;9.32;5.28;;;0.80;99.90;;;;;;6403359;22;20018;-77
2023/04/06 05:55:21;;;;;;;10.52;5.75;;;0.90;99.90;;;;;;6403483;22;20116;-84
2023/04/06 05:57:47;;;;;;;11.10;5.95;;;0.90;99.90;;;;;;6403172;22;20027;-86
2023/04/06 06:00:14;;;;;;;9.25;5.60;;;1.00;99.90;;;;;;6348737;22;20014;-81
2023/04/06 06:02:41;;;;;;;11.48;6.00;;;1.00;99.90;;;;;;6375038;22;20431;-80
2023/04/06 06:05:08;;;;;;;12.63;6.40;;;1.00;99.90;;;;;;6402155;22;20010;-79
2023/04/06 06:07:34;;;;;;;10.38;5.70;;;1.10;99.90;;;;;;6400355;22;20024;-80
2023/04/06 06:09:59;;;;;;;11.52;6.07;;;1.20;99.90;;;;;;6401434;22;20398;-79
2023/04/06 06:12:25;;;;;;;11.88;6.05;;;1.20;99.90;;;;;;6373207;22;20067;-78
2023/04/06 06:14:51;;;;;;;10.63;5.93;;;1.30;99.90;;;;;;6402633;22;20109;-81
2023/04/06 06:17:16;;;;;;;9.45;5.43;;;1.40;99.90;;;;;;6402815;22;20070;-78
2023/04/06 06:19:42;;;;;;;10.40;5.85;;;1.50;99.90;;;;;;6403124;22;20032;-79
2023/04/06 06:22:08;;;;;;;10.30;5.70;;;1.60;99.90;;;;;;6374876;22;20496;-80
2023/04/06 06:24:33;;;;;;;10.07;5.78;;;1.70;99.90;;;;;;6374660;22;20016;-85
2023/04/06 06:26:59;;;;;;;10.43;5.35;;;1.80;99.90;;;;;;6400919;22;20014;-81
2023/04/06 06:29:25;;;;;;;11.80;6.22;;;1.90;99.90;;;;;;6374913;22;20046;-80
2023/04/06 06:34:32;;;;;;;9.93;5.50;;;2.30;99.90;;;;;;6400854;22;20029;-87
2023/04/06 06:36:58;;;;;;;9.82;5.03;;;2.50;99.90;;;;;;6347564;22;20340;-86
2023/04/06 06:39:24;;;;;;;10.83;5.27;;;2.90;99.90;;;;;;6372882;22;20016;-87
2023/04/06 06:41:50;;;;;;;10.30;5.40;;;3.30;99.90;;;;;;6319652;22;20036;-84
2023/04/06 06:44:16;;;;;;;9.25;4.22;;;3.80;99.90;;;;;;6347565;22;20437;-86
2023/04/06 06:46:42;;;;;;;10.30;5.00;;;4.00;99.90;;;;;;6347654;22;20346;-86
2023/04/06 06:49:08;;;;;;;9.65;4.82;;;4.10;99.90;;;;;;6373474;22;20244;-85
2023/04/06 06:51:33;;;;;;;8.70;4.30;;;4.30;99.90;;;;;;6321503;22;20049;-85
2023/04/06 06:53:59;;;;;;;9.20;4.70;;;4.40;99.90;;;;;;6347332;22;20018;-86
2023/04/06 06:56:26;;;;;;;10.97;4.80;;;4.60;99.90;;;;;;6347583;22;20010;-85
2023/04/06 06:58:52;;;;;;;;;;;4.80;99.90;;;;;;6322227;22;20018;-85
2023/04/06 07:01:17;;;;;;;9.65;4.85;;;5.00;99.90;;;;;;6371577;22;19914;-86
2023/04/06 07:03:43;;;;;;;8.83;4.60;;;5.20;99.90;;;;;;6401787;22;20014;-86
2023/04/06 07:06:09;;;;;;;10.52;4.78;;;5.40;99.90;;;;;;6401907;22;20013;-87
2023/04/06 07:08:34;;;;;;;9.37;4.57;;;5.60;99.90;;;;;;6373581;22;20089;-87
2023/04/06 07:11:00;;;;;;;8.47;4.70;;;5.90;99.90;;;;;;6373798;22;20022;-86
2023/04/06 07:13:27;;;;;;;8.87;4.70;;;6.00;99.90;;;;;;6373297;22;20049;-85
2023/04/06 07:15:53;;;;;;;;;;;6.10;99.90;;;;;;6402358;22;20028;-86
2023/04/06 07:18:19;;;;;;;8.77;4.40;;;6.30;99.90;;;;;;6373646;22;19981;-86
2023/04/06 07:20:45;;;;;;;7.30;4.20;;;6.50;99.90;;;;;;6373794;22;20009;-88
2023/04/06 07:23:11;;;;;;;8.80;4.80;;;6.90;99.90;;;;;;6351562;22;20433;-85
2023/04/06 07:25:37;;;;;;;8.70;4.80;;;7.30;99.90;;;;;;6352514;22;20010;-85
2023/04/06 07:28:03;;;;;;;8.90;5.17;;;7.60;99.90;;;;;;6373428;22;20065;-85
2023/04/06 07:30:30;;;;;;;8.38;4.93;;;7.80;99.90;;;;;;6399970;22;20021;-85
2023/04/06 07:32:56;;;;;;;8.20;4.28;;;7.80;99.90;;;;;;6334916;22;20015;-83
2023/04/06 07:35:23;;;;;;;8.52;4.93;;;7.80;99.90;;;;;;6242382;22;20056;-85
2023/04/06 07:37:49;;;;;;;8.60;4.72;;;7.80;99.90;;;;;;6242477;22;20080;-83
2023/04/06 07:40:15;;;;;;;8.63;4.68;;;7.80;99.90;;;;;;6269649;22;20031;-83
2023/04/06 07:42:41;;;;;;;9.60;4.77;;;7.80;99.90;;;;;;6242014;22;20020;-86
2023/04/06 07:45:07;;;;;;;11.07;4.53;;;8.00;99.90;;;;;;6271011;22;20020;-83
2023/04/06 07:47:36;;;;;;;8.63;4.72;;;8.00;99.90;;;;;;6219146;22;20425;-84
2023/04/06 07:50:07;;;;;;;8.68;4.75;;;7.80;99.90;;;;;;6244466;22;20019;-84
2023/04/06 07:52:32;;;;;;;8.60;4.50;;;7.40;99.90;;;;;;6219215;22;20342;-84
2023/04/06 07:54:59;;;;;;;8.90;4.50;;;7.10;99.90;;;;;;6219695;22;20020;-82
2023/04/06 07:57:25;;;;;;;9.77;5.13;;;6.90;99.90;;;;;;6245017;22;20016;-82
2023/04/06 07:59:50;;;;;;;9.27;5.23;;;6.70;99.90;;;;;;6219732;22;20020;-82
2023/04/06 08:02:16;;;;;;;10.33;5.00;;;6.60;99.90;;;;;;6270111;22;20054;-83
2023/04/06 08:04:42;;;;;;;9.57;5.00;;;6.50;99.90;;;;;;6218161;22;20020;-81
2023/04/06 08:07:08;;;;;;;10.07;4.83;;;6.50;99.90;;;;;;6271730;22;20043;-84
2023/04/06 08:09:33;;;;;;;9.70;4.97;;;6.50;99.90;;;;;;6272840;22;20085;-89
2023/04/06 08:11:59;;;;;;;7.97;4.23;;;6.50;99.90;;;;;;6196089;22;20026;-90
2023/04/06 08:14:25;;;;;;;12.83;5.07;;;6.50;99.90;;;;;;6326589;22;20016;-90
2023/04/06 08:16:50;;;;;;;10.37;5.27;;;6.60;99.90;;;;;;6194941;22;20049;-91
2023/04/06 08:19:18;;;;;;;11.27;5.87;;;6.60;99.90;;;;;;6245805;22;20486;-91
2023/04/06 08:21:47;;;;;;;9.32;4.68;;;6.70;99.90;;;;;;6213578;22;20010;-88
2023/04/06 08:24:14;;;;;;;8.68;4.55;;;6.80;99.90;;;;;;6242088;22;20446;-92
2023/04/06 08:26:40;;;;;;;9.68;4.90;;;6.80;99.90;;;;;;6216155;22;20014;-91
2023/04/06 08:29:07;;;;;;;11.37;5.37;;;6.90;99.90;;;;;;6241342;22;20021;-90
2023/04/06 08:31:34;;;;;;;8.73;4.43;;;7.00;99.90;;;;;;6266180;22;20021;-91
2023/04/06 08:34:00;;;;;;;;;;;7.10;99.90;;;;;;6266902;22;20041;-91
2023/04/06 08:36:26;;;;;;;9.32;4.68;;;7.20;99.90;;;;;;6266632;22;20323;-87
2023/04/06 08:38:52;;;;;;;10.53;5.70;;;7.30;99.90;;;;;;6242361;22;20006;-91
2023/04/06 08:41:18;;;;;;;10.82;5.13;;;7.40;99.90;;;;;;6348567;22;20025;-87
2023/04/06 08:43:52;;;;;;;9.70;5.13;;;7.50;99.90;;;;;;6267180;22;20021;-84
2023/04/06 08:46:18;;;;;;;7.85;4.35;;;7.60;99.90;;;;;;6267147;22;20081;-87
2023/04/06 08:48:48;;;;;;;8.60;4.88;;;7.70;99.90;;;;;;6266723;22;20018;-85
2023/04/06 08:51:15;;;;;;;8.63;4.25;;;7.80;99.90;;;;;;6402962;22;20012;-87
2023/04/06 08:53:41;;;;;;;8.60;4.43;;;7.90;99.90;;;;;;6267204;22;20014;-85
2023/04/06 08:56:09;;;;;;;8.90;4.53;;;8.10;99.90;;;;;;6266286;22;20071;-85
2023/04/06 08:58:40;;;;;;;8.35;3.97;;;8.10;99.90;;;;;;6264675;22;20089;-87
2023/04/06 09:01:13;;;;;;;9.52;4.78;;;8.20;99.90;;;;;;6267063;22;20502;-82
2023/04/06 09:03:40;;;;;;;10.02;5.22;;;8.30;99.90;;;;;;6266829;22;20010;-85
2023/04/06 09:06:06;;;;;;;9.55;4.70;;;8.30;99.90;;;;;;6267633;22;20088;-81
2023/04/06 09:08:40;;;;;;;9.07;4.53;;;8.50;99.90;;;;;;6268066;22;20029;-89
2023/04/06 09:11:06;;;;;;;9.45;4.63;;;8.60;99.90;;;;;;6272383;22;20407;-86
2023/04/06 09:13:43;;;;;;;10.70;4.90;;;8.70;99.90;;;;;;6275909;22;20155;-86
2023/04/06 09:16:09;;;;;;;8.40;4.60;;;8.80;99.90;;;;;;6403986;22;20005;-85
2023/04/06 09:18:35;;;;;;;8.50;4.60;;;8.90;99.90;;;;;;6266467;22;20462;-81
2023/04/06 09:21:02;;;;;;;8.70;4.50;;;8.90;99.90;;;;;;6266686;22;20006;-82
2023/04/06 09:23:28;;;;;;;8.73;4.20;;;9.00;99.90;;;;;;6402553;22;20021;-83
2023/04/06 09:26:11;;;;;;;9.27;4.77;;;9.10;99.90;;;;;;6241692;22;20347;-82
2023/04/06 09:28:49;;;;;;;9.88;4.72;;;9.20;99.90;;;;;;6266692;22;20020;-84
2023/04/06 09:31:17;;;;;;;9.60;4.35;;;9.30;99.90;;;;;;6267093;22;20014;-89
2023/04/06 09:33:46;;;;;;;9.85;4.45;;;9.40;99.90;;;;;;6266932;22;20013;-83
2023/04/06 09:36:13;;;;;;;9.90;4.63;;;9.50;99.90;;;;;;6266953;22;20014;-83
2023/04/06 09:38:55;;;;;;;10.13;4.50;;;9.60;99.90;;;;;;6267445;22;20058;-82
2023/04/06 09:41:23;;;;;;;11.18;4.32;;;9.70;99.90;;;;;;6266200;22;20045;-87
2023/04/06 09:44:01;;;;;;;10.07;4.57;;;9.80;99.90;;;;;;6241216;22;20553;-87
2023/04/06 09:46:30;;;;;;;10.93;4.50;;;9.90;99.90;;;;;;6402595;22;20014;-83
2023/04/06 09:48:56;;;;;;;8.85;4.50;;;10.00;99.90;;;;;;6266646;22;20114;-85
2023/04/06 09:51:25;;;;;;;10.38;4.97;;;10.10;99.90;;;;;;6266540;22;20343;-85
2023/04/06 09:53:53;;;;;;;10.98;5.05;;;10.10;99.90;;;;;;6266403;22;20097;-84
2023/04/06 09:56:25;;;;;;;8.10;4.30;;;10.10;99.90;;;;;;6266830;22;20021;-84
2023/04/06 09:58:56;;;;;;;9.23;4.72;;;10.00;99.90;;;;;;6266835;22;20204;-85
2023/04/06 10:01:26;;;;;;;11.05;4.97;;;10.00;99.90;;;;;;6265247;22;20018;-85
2023/04/06 10:04:17;;;;;;;9.38;4.68;;;10.00;99.90;;;;;;6268365;22;20018;-84
2023/04/06 10:06:44;;;;;;;8.18;4.65;;;9.90;99.90;;;;;;6266764;22;20013;-88
2023/04/06 10:09:10;;;;;;;;;;;10.00;99.90;;;;;;6267087;22;20347;-87
2023/04/06 10:11:37;;;;;;;11.95;5.30;;;10.00;99.90;;;;;;6266851;22;19960;-86
2023/04/06 10:14:03;;;;;;;9.13;4.88;;;10.00;99.90;;;;;;6402271;22;20118;-84
2023/04/06 10:16:30;;;;;;;11.57;5.33;;;10.00;99.90;;;;;;6241506;22;20018;-85
2023/04/06 10:19:08;;;;;;;10.57;4.75;;;10.00;99.90;;;;;;6240576;22;20070;-90
2023/04/06 10:21:36;;;;;;;10.75;5.07;;;10.00;99.90;;;;;;6241555;22;20017;-87
2023/04/06 10:24:10;;;;;;;10.93;5.78;;;10.00;99.90;;;;;;6263908;22;20067;-85
2023/04/06 10:26:36;;;;;;;12.50;5.72;;;10.00;99.90;;;;;;6266967;22;20387;-83
2023/04/06 10:29:05;;;;;;;11.63;5.43;;;10.00;99.90;;;;;;6401849;22;20408;-85
2023/04/06 10:31:32;;;;;;;10.75;5.55;;;10.10;99.90;;;;;;6266730;22;20014;-83
2023/04/06 10:33:59;;;;;;;10.98;5.25;;;10.10;99.90;;;;;;6262605;22;20039;-81
2023/04/06 10:36:27;;;;;;;12.00;6.18;;;10.20;99.90;;;;;;6265062;22;20021;-84
2023/04/06 10:38:56;;;;;;;11.23;5.43;;;10.30;99.90;;;;;;6401865;22;20052;-84
2023/04/06 10:41:22;;;;;;;10.68;5.50;;;10.40;99.90;;;;;;6266043;22;20075;-83
2023/04/06 10:43:58;;;;;;;10.80;5.23;;;10.50;99.90;;;;;;6240697;22;20017;-87
2023/04/06 10:46:26;;;;;;;13.60;6.00;;;10.50;99.90;;;;;;6402401;22;20013;-85
2023/04/06 10:48:52;;;;;;;10.52;6.05;;;10.50;99.90;;;;;;6266844;22;20005;-85
2023/04/06 10:51:40;;;;;;;17.57;9.73;;;10.60;99.90;;;;;;6349283;22;20342;-92
2023/04/06 10:54:07;;;;;;;11.77;6.40;;;10.60;99.90;;;;;;6241860;22;20014;-92
2023/04/06 10:56:36;;;;;;;11.45;5.95;;;10.60;99.90;;;;;;6217676;22;20396;-90
2023/04/06 10:59:02;;;;;;;12.40;6.40;;;10.70;99.90;;;;;;6243991;22;20052;-89
2023/04/06 11:01:28;;;;;;;13.60;6.53;;;10.70;99.90;;;;;;6243237;22;20018;-91
2023/04/06 11:04:00;;;;;;;11.43;6.17;;;10.80;99.90;;;;;;6268358;22;20045;-89
2023/04/06 11:06:28;;;;;;;12.00;6.35;;;10.90;99.90;;;;;;6243540;22;20092;-93
2023/04/06 11:08:55;;;;;;;14.65;7.20;;;10.80;99.90;;;;;;6243336;22;20455;-89
2023/04/06 11:11:25;;;;;;;10.98;6.35;;;10.80;99.90;;;;;;6245060;22;20460;-90
2023/04/06 11:14:00;;;;;;;16.20;7.43;;;10.90;99.90;;;;;;6278164;22;20048;-92
2023/04/06 11:16:29;;;;;;;13.77;6.43;;;10.90;99.90;;;;;;6217969;22;20014;-90
2023/04/06 11:21:48;;;;;;;15.77;6.95;;;10.90;99.90;;;;;;6400527;22;20017;-84
2023/04/06 11:24:19;;;;;;;13.05;6.97;;;11.00;99.90;;;;;;6239537;22;20131;-86
2023/04/06 11:26:56;;;;;;;15.77;7.88;;;11.10;99.90;;;;;;6241683;22;20014;-87
2023/04/06 11:29:24;;;;;;;16.00;7.63;;;11.10;99.90;;;;;;6242954;22;20026;-86
2023/04/06 11:31:52;;;;;;;15.45;7.97;;;11.20;99.90;;;;;;6241328;22;20013;-85
2023/04/06 11:34:20;;;;;;;14.85;7.68;;;11.30;99.90;;;;;;6265979;22;20097;-85
2023/04/06 11:36:47;;;;;;;14.52;7.20;;;11.30;99.80;;;;;;6240526;22;20078;-86
2023/04/06 11:39:18;;;;;;;13.90;7.68;;;11.30;99.80;;;;;;6265969;22;20014;-85
2023/04/06 11:41:48;;;;;;;15.90;7.15;;;11.40;99.80;;;;;;6265472;22;20021;-88
2023/04/06 11:44:14;;;;;;;14.50;7.97;;;11.60;99.70;;;;;;6266802;22;20445;-86
2023/04/06 11:46:40;;;;;;;14.27;8.63;;;11.80;99.50;;;;;;6265921;22;20088;-91
2023/04/06 11:49:06;;;;;;;17.67;9.20;;;11.90;99.00;;;;;;6240765;22;20283;-87
2023/04/06 11:51:36;;;;;;;15.23;8.18;;;11.80;98.40;;;;;;6239801;22;20451;-86
2023/04/06 11:54:02;;;;;;;16.38;9.23;;;11.90;98.50;;;;;;6401504;22;20018;-86
2023/04/06 11:56:29;;;;;;;17.50;8.60;;;11.90;98.40;;;;;;6240213;22;20089;-86
2023/04/06 11:58:59;;;;;;;16.73;8.95;;;11.90;98.30;;;;;;6241010;22;20021;-90
2023/04/06 12:01:26;;;;;;;17.92;9.70;;;12.00;98.00;;;;;;6265300;22;20014;-87
2023/04/06 12:03:52;;;;;;;18.52;10.10;;;12.00;97.90;;;;;;6239586;22;20025;-88
2023/04/06 12:06:18;;;;;;;17.25;8.75;;;12.20;97.70;;;;;;6291079;22;20010;-84
2023/04/06 12:08:44;;;;;;;18.98;9.05;;;12.30;97.60;;;;;;6266061;22;20052;-83
2023/04/06 12:11:11;;;;;;;19.80;10.00;;;12.40;97.30;;;;;;6266530;22;20014;-85
2023/04/06 12:13:37;;;;;;;18.48;9.63;;;12.50;96.90;;;;;;6240199;22;20022;-85
2023/04/06 12:16:03;;;;;;;19.10;9.90;;;12.50;96.60;;;;;;6400800;22;20009;-86
2023/04/06 12:18:30;;;;;;;19.83;10.35;;;12.40;96.20;;;;;;6264047;22;20012;-84
2023/04/06 12:20:56;;;;;;;17.48;9.05;;;12.30;95.90;;;;;;6264545;22;20010;-87
2023/04/06 12:23:21;;;;;;;16.10;9.20;;;12.30;96.00;;;;;;6240555;22;20439;-86
2023/04/06 12:25:47;;;;;;;16.63;8.77;;;12.20;96.00;;;;;;6240024;22;20021;-86
2023/04/06 12:28:13;;;;;;;16.40;8.77;;;12.20;95.90;;;;;;6240182;22;20014;-85
2023/04/06 12:30:40;;;;;;;18.47;9.57;;;12.20;95.80;;;;;;6240307;22;20005;-85
2023/04/06 12:33:06;;;;;;;18.02;9.00;;;12.10;95.70;;;;;;6266149;22;20102;-85
2023/04/06 12:35:36;;;;;;;16.40;8.63;;;12.10;96.00;;;;;;6240353;22;20044;-85
2023/04/06 12:38:02;;;;;;;17.77;9.52;;;12.10;96.20;;;;;;6265652;22;20018;-85
2023/04/06 12:40:27;;;;;;;17.60;9.13;;;12.10;96.10;;;;;;6240466;22;20041;-84
2023/04/06 12:42:53;;;;;;;18.90;9.13;;;12.20;96.00;;;;;;6239590;22;20018;-84
2023/04/06 12:45:19;;;;;;;20.33;10.20;;;12.20;95.90;;;;;;6239927;22;20022;-86
2023/04/06 12:47:45;;;;;;;17.90;9.40;;;12.20;95.90;;;;;;6265620;22;20114;-84
2023/04/06 12:50:10;;;;;;;17.00;8.77;;;12.30;95.60;;;;;;6215153;22;20029;-85
2023/04/06 12:52:36;;;;;;;19.93;10.30;;;12.30;95.40;;;;;;6239624;22;20265;-86
2023/04/06 12:55:05;;;;;;;17.93;9.00;;;12.30;95.50;;;;;;6215097;22;20451;-86
2023/04/06 12:57:31;;;;;;;16.83;9.27;;;12.30;95.40;;;;;;6265238;22;20022;-86
2023/04/06 12:59:57;;;;;;;17.17;9.47;;;12.30;95.30;;;;;;6265613;22;20014;-87
2023/04/06 13:02:23;;;;;;;17.40;9.40;;;12.30;95.00;;;;;;6401062;22;20442;-85
2023/04/06 13:04:50;;;;;;;19.38;9.23;;;12.20;95.20;;;;;;6265680;22;20082;-84
2023/04/06 13:07:16;;;;;;;19.50;9.75;;;12.20;95.40;;;;;;6240727;22;20450;-86
2023/04/06 13:09:41;;;;;;;22.48;9.85;;;12.10;95.50;;;;;;6265137;22;20144;-86
2023/04/06 13:12:07;;;;;;;19.87;9.67;;;12.10;95.40;;;;;;6239701;22;20064;-84
2023/04/06 13:14:42;;;;;;;18.97;9.27;;;12.00;95.40;;;;;;6265427;22;20020;-85
2023/04/06 13:17:08;;;;;;;16.83;9.00;;;12.00;95.40;;;;;;6400872;22;20341;-85
2023/04/06 13:19:34;;;;;;;17.38;9.43;;;12.00;95.40;;;;;;6264916;22;20018;-84